Time;durP1;ratioP1;P1;durP2;ratioP2;P2;SDS_P1;SDS_P2;PMS_P1;PMS_P2;Temp;Humidity;BMP_temperature;BMP_pressure;BME280_temperature;BME280_humidity;BME280_pressure;Samples;Min_cycle;Max_cycle;Signal;HPM_P1;HPM_P2
2021/08/23 00:01:06;;;;;;;6.40;5.47;;;;;;;17.78;79.35;100875.92;1664263;84;25748;-78
2021/08/23 00:03:33;;;;;;;7.80;6.28;;;;;;;17.77;79.38;100855.84;1628001;84;25789;-78
2021/08/23 00:06:00;;;;;;;8.80;5.75;;;;;;;17.75;79.25;100845.20;1614800;85;26578;-79
2021/08/23 00:08:29;;;;;;;6.72;5.97;;;;;;;17.73;79.13;100844.09;1666993;84;25784;-78
2021/08/23 00:10:56;;;;;;;6.65;4.85;;;;;;;17.74;79.00;100842.21;1688512;82;27634;-78
2021/08/23 00:13:24;;;;;;;7.37;5.50;;;;;;;17.74;78.98;100839.50;1625046;83;26027;-79
2021/08/23 00:15:55;;;;;;;7.58;5.05;;;;;;;17.75;78.78;100829.50;1631671;83;25873;-78
2021/08/23 00:18:19;;;;;;;7.45;5.53;;;;;;;17.73;78.74;100814.28;1680677;83;25936;-79
2021/08/23 00:20:54;;;;;;;8.88;5.70;;;;;;;17.71;78.68;100810.98;1661006;84;26854;-78
2021/08/23 00:23:16;;;;;;;4.92;4.47;;;;;;;17.71;78.47;100813.69;1640974;84;28216;-79
2021/08/23 00:25:43;;;;;;;6.03;5.12;;;;;;;17.71;78.32;100816.39;1634509;83;25861;-78
2021/08/23 00:28:12;;;;;;;6.08;4.60;;;;;;;17.73;78.15;100822.41;1688112;83;25623;-78
2021/08/23 00:30:39;;;;;;;7.47;5.08;;;;;;;17.71;78.08;100826.39;1664198;83;26571;-78
2021/08/23 00:33:06;;;;;;;6.72;4.62;;;;;;;17.69;78.03;100829.34;1638805;84;26054;-79
2021/08/23 00:35:33;;;;;;;5.25;4.65;;;;;;;17.69;77.98;100832.05;1636358;83;28090;-79
2021/08/23 00:38:01;;;;;;;6.58;4.55;;;;;;;17.68;77.96;100830.38;1662840;84;25938;-78
2021/08/23 00:40:28;;;;;;;6.85;4.65;;;;;;;17.68;78.01;100839.87;1675814;83;25371;-79
2021/08/23 00:42:55;;;;;;;10.53;4.75;;;;;;;17.67;77.87;100846.87;1639548;84;25834;-78
2021/08/23 00:45:22;;;;;;;6.00;4.33;;;;;;;17.64;77.88;100825.12;1614432;83;25790;-78
2021/08/23 00:47:50;;;;;;;7.87;4.33;;;;;;;17.62;77.91;100823.72;1682996;83;27502;-78
2021/08/23 00:50:17;;;;;;;7.72;4.33;;;;;;;;;;1661925;84;25822;-78
2021/08/23 00:52:44;;;;;;;6.08;4.12;;;;;;;17.56;77.77;100815.95;1643423;84;25369;-78
2021/08/23 00:55:11;;;;;;;6.17;3.83;;;;;;;17.53;77.93;100807.47;1646253;85;25894;-78
2021/08/23 00:57:40;;;;;;;5.47;4.47;;;;;;;17.52;77.82;100814.76;1665641;84;25827;-78
2021/08/23 01:00:12;;;;;;;6.53;3.95;;;;;;;17.52;77.87;100813.92;1657189;84;28254;-78
2021/08/23 01:03:00;;;;;;;6.40;4.12;;;;;;;17.49;78.10;100819.23;1672915;84;25870;-78
2021/08/23 01:05:31;;;;;;;4.30;3.90;;;;;;;17.49;77.96;100818.42;1591170;84;27009;-78
2021/08/23 01:08:09;;;;;;;4.83;3.60;;;;;;;17.50;78.00;100820.93;1647278;84;26933;-78
2021/08/23 01:10:49;;;;;;;4.92;4.28;;;;;;;17.49;78.00;100819.23;1641044;84;25586;-78
2021/08/23 01:13:16;;;;;;;8.18;3.75;;;;;;;17.48;78.15;100816.76;1667037;84;28333;-78
2021/08/23 01:15:43;;;;;;;5.72;4.10;;;;;;;17.47;78.13;100815.12;1619335;84;25938;-78
2021/08/23 01:18:10;;;;;;;7.72;4.00;;;;;;;17.49;78.08;100811.66;1614151;84;25922;-78
2021/08/23 01:20:42;;;;;;;4.25;3.47;;;;;;;17.49;78.10;100815.16;1623601;84;26340;-78
2021/08/23 01:23:12;;;;;;;4.00;3.65;;;;;;;17.50;77.99;100814.68;1622849;85;26056;-78
2021/08/23 01:25:41;;;;;;;6.30;3.42;;;;;;;17.51;78.02;100815.00;1620756;84;27608;-78
2021/08/23 01:28:19;;;;;;;5.35;4.35;;;;;;;17.51;77.93;100810.93;1639156;85;25817;-78
2021/08/23 01:31:13;;;;;;;3.85;3.52;;;;;;;17.49;78.26;100804.88;1666858;84;25873;-78
2021/08/23 01:33:44;;;;;;;4.03;3.62;;;;;;;17.46;78.00;100802.61;1672540;84;25828;-78
2021/08/23 01:36:11;;;;;;;4.45;3.27;;;;;;;17.45;78.08;100795.56;1620480;85;25780;-78
2021/08/23 01:38:39;;;;;;;4.45;3.52;;;;;;;17.41;78.22;100788.39;1674643;84;27635;-78
2021/08/23 01:41:08;;;;;;;4.85;3.62;;;;;;;17.39;78.16;100791.02;1640064;85;25751;-78
2021/08/23 01:43:36;;;;;;;5.90;3.95;;;;;;;17.39;78.23;100795.92;1628620;84;25875;-78
2021/08/23 01:46:03;;;;;;;4.28;3.85;;;;;;;17.37;78.16;100795.32;1621355;85;27135;-78
2021/08/23 01:48:30;;;;;;;5.17;4.65;;;;;;;17.37;78.14;100786.36;1675773;84;25838;-78
2021/08/23 01:50:58;;;;;;;5.17;3.90;;;;;;;17.38;78.17;100791.58;1642872;85;27545;-78
2021/08/23 01:53:25;;;;;;;6.12;3.65;;;;;;;17.38;78.08;100792.09;1670815;84;26565;-78
2021/08/23 01:55:52;;;;;;;7.40;3.87;;;;;;;17.38;78.03;100794.28;1626729;85;25862;-78
2021/08/23 01:58:20;;;;;;;4.50;3.62;;;;;;;17.38;78.07;100802.92;1674474;84;25887;-78
2021/08/23 02:00:47;;;;;;;4.28;3.65;;;;;;;17.38;78.05;100806.47;1640767;85;25789;-78
2021/08/23 02:03:14;;;;;;;4.25;3.85;;;;;;;17.40;78.00;100815.71;1643436;84;28179;-78
2021/08/23 02:05:41;;;;;;;7.08;3.62;;;;;;;17.38;77.92;100817.30;1614035;85;25888;-78
2021/08/23 02:08:10;;;;;;;4.22;3.17;;;;;;;17.35;77.88;100820.97;1674954;84;25808;-78
2021/08/23 02:10:37;;;;;;;5.45;3.77;;;;;;;17.32;77.88;100824.95;1631076;85;25904;-78
2021/08/23 02:13:05;;;;;;;5.58;3.75;;;;;;;17.30;77.96;100832.47;1639846;84;25857;-78
2021/08/23 02:15:32;;;;;;;6.12;3.67;;;;;;;17.29;77.96;100835.41;1622966;85;27436;-78
2021/08/23 02:17:59;;;;;;;4.95;3.27;;;;;;;17.27;78.13;100827.52;1664890;84;25907;-78
2021/08/23 02:20:26;;;;;;;5.05;3.45;;;;;;;17.24;78.06;100827.13;1639879;85;25864;-78
2021/08/23 02:22:53;;;;;;;4.00;3.60;;;;;;;17.23;78.07;100820.91;1626422;85;26014;-78
2021/08/23 02:25:23;;;;;;;4.50;3.60;;;;;;;17.23;78.07;100821.42;1619181;85;25512;-78
2021/08/23 02:27:52;;;;;;;3.77;3.35;;;;;;;17.23;78.09;100822.26;1669505;84;28249;-78
2021/08/23 02:30:20;;;;;;;5.75;3.65;;;;;;;17.24;78.06;100822.55;1646436;84;25911;-78
2021/08/23 02:32:48;;;;;;;4.78;3.15;;;;;;;17.24;78.18;100819.83;1644706;85;25618;-78
2021/08/23 02:35:15;;;;;;;4.33;3.62;;;;;;;17.24;78.21;100819.00;1621464;85;25893;-78
2021/08/23 02:37:43;;;;;;;5.53;3.62;;;;;;;17.23;78.20;100811.95;1669634;84;25923;-78
2021/08/23 02:40:11;;;;;;;5.10;3.42;;;;;;;17.20;78.17;100807.80;1617715;85;28148;-78
2021/08/23 02:42:39;;;;;;;3.83;3.40;;;;;;;17.19;78.28;100797.20;1635314;85;25859;-78
2021/08/23 02:45:07;;;;;;;5.12;3.60;;;;;;;17.16;78.34;100790.36;1619156;84;25866;-78
2021/08/23 02:47:36;;;;;;;4.45;3.08;;;;;;;17.14;78.42;100788.41;1641080;85;25947;-78
2021/08/23 02:50:09;;;;;;;5.00;3.60;;;;;;;17.13;78.43;100791.34;1624653;84;25856;-78
2021/08/23 02:52:37;;;;;;;4.85;3.05;;;;;;;17.11;78.49;100783.98;1638096;83;27552;-78
2021/08/23 02:55:06;;;;;;;4.67;3.15;;;;;;;17.10;78.52;100782.31;1621103;85;25876;-78
2021/08/23 02:57:33;;;;;;;4.28;3.58;;;;;;;17.08;78.55;100776.30;1659393;84;26583;-78
2021/08/23 03:00:00;;;;;;;4.62;3.50;;;;;;;17.06;78.47;100771.12;1662073;83;25914;-78
2021/08/23 03:02:27;;;;;;;4.70;3.37;;;;;;;17.07;78.57;100764.63;1642505;83;25781;-78
2021/08/23 03:04:55;;;;;;;3.47;3.10;;;;;;;17.07;78.46;100765.16;1654282;83;27568;-78
2021/08/23 03:07:22;;;;;;;3.70;3.20;;;;;;;17.06;78.43;100756.75;1661380;83;26532;-78
2021/08/23 03:09:49;;;;;;;6.40;3.67;;;;;;;17.03;78.44;100751.77;1654728;84;25826;-78
2021/08/23 03:12:17;;;;;;;4.62;3.45;;;;;;;17.01;78.43;100756.58;1644741;83;26497;-78
2021/08/23 03:14:44;;;;;;;4.15;3.60;;;;;;;16.97;78.51;100758.92;1619360;86;25845;-78
2021/08/23 03:17:11;;;;;;;5.15;3.52;;;;;;;16.94;78.46;100755.30;1646464;84;27716;-78
2021/08/23 03:19:38;;;;;;;4.17;3.62;;;;;;;16.94;78.52;100765.61;1676349;84;25874;-78
2021/08/23 03:22:05;;;;;;;4.15;3.20;;;;;;;16.95;78.44;100771.85;1613838;84;25822;-78
2021/08/23 03:24:33;;;;;;;5.12;3.65;;;;;;;16.93;78.48;100772.61;1633894;85;25887;-78
2021/08/23 03:27:00;;;;;;;4.25;3.25;;;;;;;16.93;78.53;100778.02;1634484;84;25819;-78
2021/08/23 03:29:27;;;;;;;3.90;3.55;;;;;;;16.93;78.48;100782.91;1643556;84;28249;-78
2021/08/23 03:31:54;;;;;;;7.50;3.90;;;;;;;16.93;78.66;100786.97;1615117;84;26522;-78
2021/08/23 03:34:21;;;;;;;4.78;3.67;;;;;;;16.94;78.67;100788.61;1616656;85;25890;-78
2021/08/23 03:36:48;;;;;;;6.42;4.08;;;;;;;16.93;78.89;100788.33;1638559;85;26388;-78
2021/08/23 03:39:20;;;;;;;5.20;3.87;;;;;;;16.93;78.97;100788.33;1673653;84;25800;-78
2021/08/23 03:41:45;;;;;;;5.15;3.67;;;;;;;16.94;79.16;100794.53;1593836;85;27384;-78
2021/08/23 03:44:12;;;;;;;5.75;4.30;;;;;;;16.98;79.12;100794.94;1633058;84;25308;-78
2021/08/23 03:46:39;;;;;;;4.85;3.85;;;;;;;17.00;79.23;100799.05;1636681;86;25811;-78
2021/08/23 03:49:06;;;;;;;4.62;3.90;;;;;;;17.03;79.28;100804.55;1637560;85;25937;-78
2021/08/23 03:51:33;;;;;;;4.85;4.08;;;;;;;17.02;79.41;100796.98;1614109;85;25778;-78
2021/08/23 03:54:00;;;;;;;6.22;4.30;;;;;;;16.99;79.47;100793.35;1630448;85;27613;-78
2021/08/23 03:56:28;;;;;;;5.20;4.03;;;;;;;16.98;79.58;100797.93;1656457;85;25852;-78
2021/08/23 03:58:55;;;;;;;5.92;3.98;;;;;;;16.98;79.73;100799.00;1634783;85;25862;-78
2021/08/23 04:01:22;;;;;;;5.40;4.90;;;;;;;16.96;79.89;100803.25;1609017;85;26326;-78
2021/08/23 04:03:50;;;;;;;4.78;4.33;;;;;;;16.93;80.21;100809.97;1628246;86;25893;-78
2021/08/23 04:06:17;;;;;;;6.47;4.83;;;;;;;16.91;80.56;100806.63;1640968;86;28164;-78
2021/08/23 04:08:44;;;;;;;5.17;4.67;;;;;;;16.88;80.81;100803.03;1641012;85;25751;-78
2021/08/23 04:11:13;;;;;;;5.10;4.70;;;;;;;16.87;81.16;100802.72;1593935;87;25821;-78
2021/08/23 04:13:41;;;;;;;5.00;4.60;;;;;;;16.87;81.36;100801.91;1612928;87;26558;-78
2021/08/23 04:16:18;;;;;;;9.20;5.55;;;;;;;16.87;81.71;100799.20;1642696;85;25913;-78
2021/08/23 04:18:46;;;;;;;7.87;5.35;;;;;;;16.88;81.79;100798.14;1664253;84;27535;-78
2021/08/23 04:21:13;;;;;;;6.53;5.22;;;;;;;16.88;82.15;100790.02;1595571;84;26605;-78
2021/08/23 04:23:40;;;;;;;5.97;5.20;;;;;;;16.88;82.44;100787.31;1635587;86;25868;-78
2021/08/23 04:26:07;;;;;;;7.25;5.90;;;;;;;16.89;82.63;100775.45;1667004;85;26047;-78
2021/08/23 04:28:34;;;;;;;8.00;5.95;;;;;;;16.88;82.78;100767.86;1661562;85;25778;-78
2021/08/23 04:31:01;;;;;;;8.78;6.42;;;;;;;16.88;83.29;100771.08;1614638;85;27324;-78
2021/08/23 04:33:28;;;;;;;6.67;5.97;;;;;;;16.86;83.45;100755.08;1630002;85;25905;-78
2021/08/23 04:35:55;;;;;;;6.90;5.72;;;;;;;16.88;83.76;100748.92;1660015;85;26568;-79
2021/08/23 04:38:22;;;;;;;8.88;6.67;;;;;;;16.88;84.00;100749.44;1663362;85;25843;-78
2021/08/23 04:40:50;;;;;;;7.03;6.33;;;;;;;16.87;84.10;100751.86;1620287;85;25893;-78
2021/08/23 04:43:17;;;;;;;7.45;6.58;;;;;;;16.88;84.34;100753.50;1627970;86;28382;-78
2021/08/23 04:45:44;;;;;;;9.00;6.72;;;;;;;16.88;84.65;100761.61;1661171;85;25741;-78
2021/08/23 04:48:11;;;;;;;6.62;5.85;;;;;;;16.89;84.55;100756.52;1631713;85;25344;-78
2021/08/23 04:50:38;;;;;;;7.15;6.45;;;;;;;16.92;84.74;100757.41;1641448;85;25808;-78
2021/08/23 04:53:05;;;;;;;8.63;6.30;;;;;;;16.94;84.52;100772.89;1631906;86;25848;-78
2021/08/23 04:55:32;;;;;;;9.15;7.10;;;;;;;16.98;84.53;100773.58;1616783;86;27485;-78
2021/08/23 04:57:59;;;;;;;6.20;5.62;;;;;;;17.01;84.54;100773.66;1665163;85;26528;-78
2021/08/23 05:00:27;;;;;;;8.93;6.00;;;;;;;17.05;84.85;100768.61;1609373;86;25918;-78
2021/08/23 05:02:54;;;;;;;7.03;6.35;;;;;;;17.06;84.71;100771.63;1616259;85;26498;-78
2021/08/23 05:05:21;;;;;;;6.17;5.28;;;;;;;17.07;84.57;100768.69;1641163;85;26658;-78
2021/08/23 05:07:49;;;;;;;6.55;5.95;;;;;;;17.09;84.71;100767.94;1660513;85;28256;-78
2021/08/23 05:10:16;;;;;;;6.87;6.17;;;;;;;17.12;84.67;100766.15;1610128;85;25969;-78
2021/08/23 05:12:43;;;;;;;5.92;5.33;;;;;;;17.14;84.60;100762.69;1606276;85;25941;-78
2021/08/23 05:15:10;;;;;;;7.72;6.35;;;;;;;17.17;84.60;100766.28;1631869;85;26035;-78
2021/08/23 05:17:37;;;;;;;8.03;6.12;;;;;;;17.18;84.34;100772.02;1660768;85;25835;-78
2021/08/23 05:20:06;;;;;;;6.80;6.10;;;;;;;17.22;84.58;100773.73;1612393;85;27369;-78
2021/08/23 05:22:36;;;;;;;6.78;6.12;;;;;;;17.25;84.32;100785.48;1637549;85;26182;-78
2021/08/23 05:25:04;;;;;;;7.90;6.10;;;;;;;17.28;84.34;100791.25;1639226;86;31709;-78
2021/08/23 05:27:31;;;;;;;8.50;5.95;;;;;;;17.33;84.24;100799.54;1666335;85;25836;-78
2021/08/23 05:30:07;;;;;;;6.55;5.65;;;;;;;17.36;84.04;100805.03;1613232;86;26077;-78
2021/08/23 05:32:34;;;;;;;6.35;5.70;;;;;;;17.36;84.19;100804.52;1660613;84;28745;-78
2021/08/23 05:35:01;;;;;;;5.90;5.25;;;;;;;17.39;84.17;100803.21;1662584;84;25840;-78
2021/08/23 05:37:28;;;;;;;6.60;5.87;;;;;;;17.41;84.04;100792.98;1664577;84;26595;-78
2021/08/23 05:39:55;;;;;;;8.28;6.15;;;;;;;17.44;84.02;100793.89;1636154;84;25815;-78
2021/08/23 05:42:22;;;;;;;7.62;5.55;;;;;;;17.44;83.77;100789.83;1652520;84;25878;-78
2021/08/23 05:44:54;;;;;;;5.97;5.37;;;;;;;17.44;83.76;100792.02;1660848;84;27527;-78
2021/08/23 05:47:24;;;;;;;7.15;5.25;;;;;;;17.44;83.86;100792.02;1691114;84;25815;-78
2021/08/23 05:49:51;;;;;;;6.75;6.15;;;;;;;17.46;83.73;100783.66;1635455;84;25861;-78
2021/08/23 05:52:18;;;;;;;6.37;5.70;;;;;;;17.47;83.73;100789.39;1676067;84;26469;-78
2021/08/23 05:54:46;;;;;;;8.10;5.80;;;;;;;17.49;83.65;100792.14;1663408;84;25953;-78
2021/08/23 05:57:13;;;;;;;7.62;6.00;;;;;;;17.52;83.66;100794.97;1687768;84;28254;-78
2021/08/23 05:59:40;;;;;;;5.80;5.30;;;;;;;17.55;83.54;100797.23;1639053;84;25835;-78
2021/08/23 06:02:07;;;;;;;7.45;5.20;;;;;;;17.56;83.20;100787.52;1677949;84;26004;-78
2021/08/23 06:04:35;;;;;;;6.12;5.37;;;;;;;17.58;83.10;100786.76;1652506;84;26189;-78
2021/08/23 06:07:02;;;;;;;6.17;5.55;;;;;;;17.60;83.07;100786.00;1688126;84;25831;-77
2021/08/23 06:09:29;;;;;;;5.40;4.90;;;;;;;17.62;82.85;100787.15;1615386;84;27553;-78
2021/08/23 06:11:56;;;;;;;5.92;5.30;;;;;;;17.64;82.80;100783.69;1655134;84;25770;-78
2021/08/23 06:14:23;;;;;;;5.97;4.90;;;;;;;17.69;82.80;100785.16;1661735;84;26217;-78
2021/08/23 06:16:50;;;;;;;6.90;5.92;;;;;;;17.73;82.50;100785.00;1689264;84;25902;-78
2021/08/23 06:19:18;;;;;;;5.20;4.70;;;;;;;17.78;82.48;100785.67;1636756;84;25849;-78
2021/08/23 06:21:46;;;;;;;5.60;4.97;;;;;;;17.81;81.96;100779.28;1649622;84;27625;-79
2021/08/23 06:24:13;;;;;;;7.47;4.87;;;;;;;17.85;81.76;100785.06;1661378;84;26626;-78
2021/08/23 06:26:40;;;;;;;6.85;4.67;;;;;;;17.88;81.36;100784.62;1688181;84;26033;-79
2021/08/23 06:29:08;;;;;;;4.87;4.47;;;;;;;17.92;81.24;100787.16;1637499;84;26501;-78
2021/08/23 06:31:38;;;;;;;7.70;4.17;;;;;;;17.96;80.84;100793.77;1661929;84;25778;-78
2021/08/23 06:34:05;;;;;;;5.58;4.00;;;;;;;17.98;80.63;100793.84;1656107;84;28270;-78
2021/08/23 06:36:33;;;;;;;6.75;3.90;;;;;;;17.99;80.13;100780.58;1657740;84;25765;-78
2021/08/23 06:39:00;;;;;;;5.10;4.20;;;;;;;18.01;79.92;100788.47;1686964;84;25981;-78
2021/08/23 06:41:28;;;;;;;4.50;3.87;;;;;;;18.04;79.72;100789.37;1653301;84;25765;-78
2021/08/23 06:43:56;;;;;;;5.72;4.03;;;;;;;18.07;79.49;100795.15;1640644;84;25878;-78
2021/08/23 06:46:23;;;;;;;7.37;4.30;;;;;;;18.09;78.72;100787.61;1674979;84;28272;-78
2021/08/23 06:48:50;;;;;;;6.85;3.92;;;;;;;18.11;78.74;100785.49;1690675;84;25884;-79
2021/08/23 06:51:20;;;;;;;6.33;3.55;;;;;;;18.11;78.38;100782.78;1662579;84;25803;-79
2021/08/23 06:53:47;;;;;;;5.28;3.60;;;;;;;18.14;78.54;100785.56;1652206;84;26514;-79
2021/08/23 06:56:15;;;;;;;5.95;4.12;;;;;;;18.17;78.12;100794.08;1619184;84;25541;-79
2021/08/23 06:58:42;;;;;;;5.60;3.85;;;;;;;18.19;77.64;100787.06;1667496;85;28169;-78
2021/08/23 07:01:09;;;;;;;5.22;3.70;;;;;;;18.18;77.62;100784.88;1645758;85;26547;-78
2021/08/23 07:03:36;;;;;;;4.22;3.52;;;;;;;18.17;77.35;100785.12;1643662;85;25886;-78
2021/08/23 07:06:03;;;;;;;4.05;3.58;;;;;;;18.17;77.23;100784.59;1627179;85;25878;-79
2021/08/23 07:08:31;;;;;;;6.20;3.80;;;;;;;18.20;77.66;100792.25;1665187;85;25731;-78
2021/08/23 07:11:00;;;;;;;7.83;4.03;;;;;;;18.23;77.38;100792.31;1639887;85;27535;-79
2021/08/23 07:13:28;;;;;;;3.85;3.08;;;;;;;18.29;77.16;100789.51;1617520;85;25969;-78
2021/08/23 07:15:57;;;;;;;4.08;3.52;;;;;;;18.31;76.91;100783.32;1609887;85;26618;-78
2021/08/23 07:18:24;;;;;;;7.22;3.60;;;;;;;18.32;76.93;100783.63;1665034;84;25835;-78
2021/08/23 07:20:53;;;;;;;5.03;3.65;;;;;;;18.34;76.94;100786.10;1637910;85;25764;-79
2021/08/23 07:23:20;;;;;;;5.30;3.33;;;;;;;18.37;77.32;100789.16;1634106;85;28281;-78
2021/08/23 07:25:52;;;;;;;6.20;3.27;;;;;;;18.43;77.15;100792.84;1610255;85;26411;-78
2021/08/23 07:28:18;;;;;;;5.78;3.50;;;;;;;18.45;76.30;100788.84;1662551;84;25987;-78
2021/08/23 07:30:46;;;;;;;7.17;3.60;;;;;;;18.45;77.01;100796.98;1594452;85;25962;-78
2021/08/23 07:33:13;;;;;;;7.65;3.47;;;;;;;18.48;76.42;100788.39;1622476;85;25800;-78
2021/08/23 07:35:40;;;;;;;5.17;3.17;;;;;;;18.48;76.14;100793.54;1617931;85;27581;-78
2021/08/23 07:38:07;;;;;;;4.08;3.58;;;;;;;18.48;75.99;100795.70;1664209;85;25867;-78
2021/08/23 07:40:35;;;;;;;4.58;3.27;;;;;;;18.47;76.34;100798.13;1605614;85;26072;-78
2021/08/23 07:43:03;;;;;;;5.12;3.65;;;;;;;18.50;75.96;100800.91;1632553;85;26539;-78
2021/08/23 07:45:30;;;;;;;5.50;4.08;;;;;;;18.50;75.70;100803.63;1611352;85;25967;-78
2021/08/23 07:47:57;;;;;;;4.58;3.62;;;;;;;18.52;76.18;100802.31;1666202;85;27556;-78
2021/08/23 07:50:26;;;;;;;4.80;3.50;;;;;;;18.58;76.41;100802.75;1637922;85;25382;-78
2021/08/23 07:52:53;;;;;;;5.10;4.25;;;;;;;18.65;76.36;100799.37;1635717;85;25911;-78
2021/08/23 07:55:20;;;;;;;5.45;4.15;;;;;;;18.66;75.89;100794.78;1645434;85;25845;-77
2021/08/23 07:57:49;;;;;;;5.17;3.52;;;;;;;18.67;75.62;100796.45;1661012;85;26579;-77
2021/08/23 08:00:20;;;;;;;7.28;3.98;;;;;;;18.68;75.89;100796.73;1620109;85;27658;-78
2021/08/23 08:02:47;;;;;;;8.23;4.45;;;;;;;18.70;75.84;100795.44;1667315;85;26463;-78
2021/08/23 08:05:15;;;;;;;6.15;4.00;;;;;;;18.71;75.42;100794.92;1600461;85;25612;-78
2021/08/23 08:07:43;;;;;;;7.22;4.58;;;;;;;18.73;75.78;100795.51;1665259;85;25885;-78
2021/08/23 08:10:12;;;;;;;5.78;4.28;;;;;;;18.76;75.64;100797.73;1631006;85;25911;-78
2021/08/23 08:12:40;;;;;;;4.17;3.75;;;;;;;18.77;75.45;100800.23;1640055;85;27535;-78
2021/08/23 08:15:09;;;;;;;5.90;4.08;;;;;;;18.77;75.50;100798.88;1609193;85;26497;-78
2021/08/23 08:17:36;;;;;;;6.62;4.20;;;;;;;18.79;75.63;100801.34;1664370;84;25813;-78
2021/08/23 08:20:06;;;;;;;4.80;4.08;;;;;;;18.82;75.71;100804.96;1618176;85;26289;-78
2021/08/23 08:22:33;;;;;;;4.40;3.77;;;;;;;18.83;75.67;100808.78;1638621;84;32495;-78
2021/08/23 08:25:00;;;;;;;4.62;3.92;;;;;;;18.84;75.80;100806.35;1615854;85;27553;-78
2021/08/23 08:27:27;;;;;;;5.80;3.98;;;;;;;18.86;75.72;100811.02;1669521;85;25736;-79
2021/08/23 08:29:55;;;;;;;5.55;4.08;;;;;;;18.88;75.33;100812.96;1614164;85;25879;-78
2021/08/23 08:32:22;;;;;;;5.87;4.50;;;;;;;18.89;75.12;100820.05;1635830;85;26009;-78
2021/08/23 08:34:49;;;;;;;7.90;4.50;;;;;;;18.87;75.42;100818.63;1628677;85;25919;-78
2021/08/23 08:37:16;;;;;;;8.55;5.15;;;;;;;18.85;75.37;100820.23;1679016;85;27586;-78
2021/08/23 08:39:43;;;;;;;10.55;6.53;;;;;;;18.85;75.60;100822.11;1647302;85;25890;-78
2021/08/23 08:42:10;;;;;;;8.48;5.83;;;;;;;18.86;75.82;100822.42;1639264;85;25355;-78
2021/08/23 08:44:37;;;;;;;6.12;4.65;;;;;;;18.89;75.81;100822.77;1616366;85;26167;-79
2021/08/23 08:47:05;;;;;;;5.87;4.62;;;;;;;18.88;75.78;100833.31;1666831;85;25889;-78
2021/08/23 08:49:35;;;;;;;10.03;5.37;;;;;;;18.88;75.86;100836.58;1645789;85;28182;-78
2021/08/23 08:52:06;;;;;;;6.17;4.72;;;;;;;18.91;76.03;100834.73;1633747;85;25881;-78
2021/08/23 08:54:33;;;;;;;7.30;5.15;;;;;;;18.92;76.12;100839.95;1622443;85;25974;-78
2021/08/23 08:57:02;;;;;;;7.47;4.42;;;;;;;18.95;76.29;100834.03;1669742;85;26500;-78
2021/08/23 08:59:30;;;;;;;7.03;4.83;;;;;;;18.99;76.27;100842.56;1632944;85;26636;-78
2021/08/23 09:01:58;;;;;;;6.30;4.30;;;;;;;19.00;76.22;100842.31;1631311;85;28127;-78
2021/08/23 09:04:37;;;;;;;5.92;4.80;;;;;;;19.03;76.44;100839.66;1618262;85;26449;-78
2021/08/23 09:07:07;;;;;;;5.55;4.30;;;;;;;19.05;76.64;100842.97;1669014;85;25862;-78
2021/08/23 09:09:35;;;;;;;7.50;4.92;;;;;;;19.07;76.63;100847.10;1625201;85;25915;-78
2021/08/23 09:12:08;;;;;;;6.30;4.90;;;;;;;19.07;76.72;100843.03;1640457;85;25815;-78
2021/08/23 09:14:40;;;;;;;6.03;4.58;;;;;;;19.09;76.87;100846.33;1616594;85;27619;-79
2021/08/23 09:17:10;;;;;;;6.95;4.50;;;;;;;19.11;77.03;100846.92;1669586;85;25767;-78
2021/08/23 09:19:37;;;;;;;5.92;4.65;;;;;;;19.12;77.18;100851.27;1649537;85;26600;-78
2021/08/23 09:22:08;;;;;;;7.55;4.60;;;;;;;19.13;77.02;100852.11;1639097;85;25828;-78
2021/08/23 09:24:41;;;;;;;6.67;4.60;;;;;;;19.16;77.02;100844.86;1648315;85;25848;-78
2021/08/23 09:27:14;;;;;;;5.50;5.00;;;;;;;19.18;77.08;100850.87;1669163;85;27511;-78
2021/08/23 09:30:01;;;;;;;7.75;4.78;;;;;;;19.20;77.46;100846.84;1636158;85;25832;-78
2021/08/23 09:32:47;;;;;;;8.78;4.45;;;;;;;19.23;77.25;100844.19;1625376;85;25905;-78
2021/08/23 09:35:35;;;;;;;6.33;4.95;;;;;;;19.22;77.12;100844.70;1637107;84;25890;-78
2021/08/23 09:38:09;;;;;;;6.50;4.78;;;;;;;19.21;77.42;100840.36;1654213;86;25844;-78
2021/08/23 09:40:36;;;;;;;8.10;4.42;;;;;;;19.21;77.53;100843.59;1627998;86;27466;-79
2021/08/23 09:43:13;;;;;;;6.20;5.05;;;;;;;19.21;77.48;100839.00;1634907;84;26227;-78
2021/08/23 09:45:47;;;;;;;5.37;4.60;;;;;;;19.22;77.55;100841.19;1627837;85;25872;-78
2021/08/23 09:48:12;;;;;;;7.08;4.62;;;;;;;19.19;77.66;100842.48;1658731;85;26466;-77
2021/08/23 09:50:43;;;;;;;6.83;4.87;;;;;;;19.20;77.69;100841.41;1655989;84;25815;-78
2021/08/23 09:53:14;;;;;;;11.12;5.53;;;;;;;19.22;77.73;100838.48;1652293;86;27564;-78
2021/08/23 09:55:48;;;;;;;8.20;4.80;;;;;;;19.24;77.76;100841.25;1635704;85;25899;-77
2021/08/23 09:58:15;;;;;;;7.10;5.28;;;;;;;19.26;77.58;100843.72;1663326;85;25791;-78
2021/08/23 10:00:44;;;;;;;9.45;4.58;;;;;;;19.27;77.46;100841.84;1619587;85;25855;-78
2021/08/23 10:03:19;;;;;;;6.00;4.67;;;;;;;19.28;77.55;100842.12;1614706;85;25750;-78
2021/08/23 10:05:49;;;;;;;8.18;5.67;;;;;;;19.27;77.68;100837.20;1663525;85;27629;-78
2021/08/23 10:08:24;;;;;;;6.57;4.67;;;;;;;19.26;77.57;100838.29;1634785;85;25914;-78
2021/08/23 10:10:52;;;;;;;5.65;5.12;;;;;;;19.28;77.76;100842.12;1660163;85;25825;-78
2021/08/23 10:13:20;;;;;;;6.58;4.72;;;;;;;19.29;77.75;100836.44;1610940;85;25671;-78
2021/08/23 10:15:47;;;;;;;7.97;5.58;;;;;;;19.32;77.84;100837.86;1635687;85;26097;-78
2021/08/23 10:18:16;;;;;;;6.70;5.08;;;;;;;19.32;77.87;100832.42;1646809;85;27312;-78
2021/08/23 10:20:44;;;;;;;8.13;5.10;;;;;;;19.30;78.08;100832.67;1635172;85;43286;-77
2021/08/23 10:23:15;;;;;;;6.33;5.42;;;;;;;19.32;78.33;100837.86;1613071;85;25848;-78
2021/08/23 10:25:41;;;;;;;;;;;;;;;19.32;78.35;100838.69;1627707;85;25868;-77
2021/08/23 10:28:16;;;;;;;7.58;5.30;;;;;;;19.32;78.63;100833.26;1611344;85;25988;-78
2021/08/23 10:30:40;;;;;;;9.38;5.58;;;;;;;19.29;78.60;100835.64;1658046;85;27587;-77
2021/08/23 10:33:17;;;;;;;7.20;5.40;;;;;;;19.29;78.59;100835.08;1603409;85;26308;-77
2021/08/23 10:35:55;;;;;;;6.95;5.33;;;;;;;19.29;78.78;100837.00;1633928;85;26577;-78
2021/08/23 10:38:25;;;;;;;6.35;5.37;;;;;;;19.27;78.89;100830.98;1662691;85;25772;-78
2021/08/23 10:41:17;;;;;;;8.43;5.50;;;;;;;19.27;78.86;100829.06;1659510;85;25910;-78
2021/08/23 10:43:56;;;;;;;7.17;5.92;;;;;;;19.28;78.56;100836.69;1645840;85;27480;-78
2021/08/23 10:46:38;;;;;;;13.10;5.80;;;;;;;19.29;78.64;100831.56;1683087;84;25829;-78
2021/08/23 10:49:16;;;;;;;8.90;5.65;;;;;;;19.29;78.60;100824.77;1641215;85;25379;-77
2021/08/23 10:51:46;;;;;;;6.12;5.53;;;;;;;19.27;78.79;100830.42;1670482;85;26599;-78
2021/08/23 10:54:25;;;;;;;6.05;5.10;;;;;;;19.24;78.50;100827.67;1596354;85;25845;-77
2021/08/23 10:57:05;;;;;;;7.80;5.60;;;;;;;19.25;79.21;100827.95;1645773;84;28388;-78
2021/08/23 10:59:48;;;;;;;6.72;5.55;;;;;;;19.25;79.19;100826.59;1640014;85;25720;-78
2021/08/23 11:02:37;;;;;;;9.38;5.60;;;;;;;19.22;79.09;100818.91;1658611;85;25831;-78
2021/08/23 11:05:20;;;;;;;8.03;5.58;;;;;;;19.25;79.22;100821.69;1613008;85;26276;-78
2021/08/23 11:07:51;;;;;;;7.95;5.70;;;;;;;19.24;79.42;100817.33;1638001;85;26362;-79
2021/08/23 11:10:24;;;;;;;5.97;5.35;;;;;;;19.21;79.77;100820.52;1656555;85;28146;-78
2021/08/23 11:12:55;;;;;;;6.72;5.58;;;;;;;19.18;79.60;100820.45;1663219;85;26579;-78
2021/08/23 11:15:31;;;;;;;7.65;5.35;;;;;;;19.14;80.00;100815.20;1598715;85;25855;-79
2021/08/23 11:18:14;;;;;;;5.53;5.03;;;;;;;19.11;80.31;100818.41;1616678;85;26501;-79
2021/08/23 11:20:46;;;;;;;7.47;5.78;;;;;;;19.08;80.60;100822.95;1628883;85;25951;-78
2021/08/23 11:23:23;;;;;;;6.40;5.72;;;;;;;19.07;80.57;100816.41;1631662;85;27521;-79
2021/08/23 11:25:58;;;;;;;8.23;5.85;;;;;;;19.04;80.66;100811.43;1615674;85;25839;-79
2021/08/23 11:28:30;;;;;;;9.20;5.92;;;;;;;19.02;81.08;100810.84;1640082;85;25912;-78
2021/08/23 11:30:54;;;;;;;6.75;6.03;;;;;;;19.00;81.28;100812.45;1662412;85;25774;-79
2021/08/23 11:33:37;;;;;;;6.78;5.87;;;;;;;18.98;81.21;100813.74;1664914;85;25361;-79
2021/08/23 11:36:09;;;;;;;6.28;5.67;;;;;;;18.92;81.43;100815.52;1633760;86;28284;-79